sensor_id;sensor_type;location;lat;lon;timestamp;P1;durP1;ratioP1;P2;durP2;ratioP2
41039;SDS011;48586;50.122;18.972;2022-08-07T00:01:54;12.38;;;8.05;;
41039;SDS011;48586;50.122;18.972;2022-08-07T00:04:58;14.77;;;7.80;;
41039;SDS011;48586;50.122;18.972;2022-08-07T00:08:01;17.17;;;8.15;;
41039;SDS011;48586;50.122;18.972;2022-08-07T00:11:04;11.90;;;8.52;;
41039;SDS011;48586;50.122;18.972;2022-08-07T00:14:07;14.45;;;8.63;;
41039;SDS011;48586;50.122;18.972;2022-08-07T00:17:09;17.98;;;9.68;;
41039;SDS011;48586;50.122;18.972;2022-08-07T00:20:12;17.23;;;10.10;;
41039;SDS011;48586;50.122;18.972;2022-08-07T00:23:16;15.95;;;9.88;;
41039;SDS011;48586;50.122;18.972;2022-08-07T00:26:18;24.88;;;11.25;;
41039;SDS011;48586;50.122;18.972;2022-08-07T00:29:20;16.35;;;10.98;;
41039;SDS011;48586;50.122;18.972;2022-08-07T00:32:28;19.05;;;10.55;;
41039;SDS011;48586;50.122;18.972;2022-08-07T00:35:30;14.10;;;9.75;;
41039;SDS011;48586;50.122;18.972;2022-08-07T00:38:33;19.80;;;11.07;;
41039;SDS011;48586;50.122;18.972;2022-08-07T00:41:38;27.55;;;13.82;;
41039;SDS011;48586;50.122;18.972;2022-08-07T00:44:40;25.20;;;13.10;;
41039;SDS011;48586;50.122;18.972;2022-08-07T00:47:42;22.60;;;12.90;;
41039;SDS011;48586;50.122;18.972;2022-08-07T00:50:44;24.38;;;12.77;;
41039;SDS011;48586;50.122;18.972;2022-08-07T00:53:48;25.55;;;13.35;;
41039;SDS011;48586;50.122;18.972;2022-08-07T00:56:50;21.55;;;13.32;;
41039;SDS011;48586;50.122;18.972;2022-08-07T00:59:52;17.20;;;11.55;;
41039;SDS011;48586;50.122;18.972;2022-08-07T01:02:54;19.33;;;12.52;;
41039;SDS011;48586;50.122;18.972;2022-08-07T01:05:56;19.95;;;12.27;;
41039;SDS011;48586;50.122;18.972;2022-08-07T01:09:00;17.48;;;11.23;;
41039;SDS011;48586;50.122;18.972;2022-08-07T01:12:04;16.60;;;10.90;;
41039;SDS011;48586;50.122;18.972;2022-08-07T01:15:07;20.92;;;11.13;;
41039;SDS011;48586;50.122;18.972;2022-08-07T01:18:10;14.93;;;10.10;;
41039;SDS011;48586;50.122;18.972;2022-08-07T01:21:14;17.05;;;10.50;;
41039;SDS011;48586;50.122;18.972;2022-08-07T01:24:20;13.38;;;10.07;;
41039;SDS011;48586;50.122;18.972;2022-08-07T01:27:23;18.92;;;10.73;;
41039;SDS011;48586;50.122;18.972;2022-08-07T01:30:27;13.70;;;9.70;;
41039;SDS011;48586;50.122;18.972;2022-08-07T01:33:33;14.40;;;10.10;;
41039;SDS011;48586;50.122;18.972;2022-08-07T01:36:37;14.83;;;9.90;;
41039;SDS011;48586;50.122;18.972;2022-08-07T01:39:47;16.23;;;10.52;;
41039;SDS011;48586;50.122;18.972;2022-08-07T01:43:01;32.28;;;15.93;;
41039;SDS011;48586;50.122;18.972;2022-08-07T01:46:05;37.42;;;17.63;;
41039;SDS011;48586;50.122;18.972;2022-08-07T01:49:12;25.50;;;14.57;;
41039;SDS011;48586;50.122;18.972;2022-08-07T01:52:15;20.50;;;12.63;;
41039;SDS011;48586;50.122;18.972;2022-08-07T02:01:30;13.27;;;9.40;;
41039;SDS011;48586;50.122;18.972;2022-08-07T02:04:38;16.52;;;10.45;;
41039;SDS011;48586;50.122;18.972;2022-08-07T02:07:47;15.40;;;9.98;;
41039;SDS011;48586;50.122;18.972;2022-08-07T02:10:56;18.05;;;9.57;;
41039;SDS011;48586;50.122;18.972;2022-08-07T02:14:04;16.00;;;9.32;;
41039;SDS011;48586;50.122;18.972;2022-08-07T02:17:08;13.07;;;9.93;;
41039;SDS011;48586;50.122;18.972;2022-08-07T02:20:14;17.45;;;11.35;;
41039;SDS011;48586;50.122;18.972;2022-08-07T02:23:20;20.65;;;11.02;;
41039;SDS011;48586;50.122;18.972;2022-08-07T02:26:24;18.65;;;10.65;;
41039;SDS011;48586;50.122;18.972;2022-08-07T02:29:27;16.95;;;10.70;;
41039;SDS011;48586;50.122;18.972;2022-08-07T02:32:32;13.93;;;9.60;;
41039;SDS011;48586;50.122;18.972;2022-08-07T02:35:37;16.67;;;10.05;;
41039;SDS011;48586;50.122;18.972;2022-08-07T02:41:46;18.23;;;9.43;;
41039;SDS011;48586;50.122;18.972;2022-08-07T02:44:49;16.33;;;10.00;;
41039;SDS011;48586;50.122;18.972;2022-08-07T02:47:56;14.23;;;10.90;;
41039;SDS011;48586;50.122;18.972;2022-08-07T02:50:58;15.32;;;10.07;;
41039;SDS011;48586;50.122;18.972;2022-08-07T02:54:07;17.52;;;10.50;;
41039;SDS011;48586;50.122;18.972;2022-08-07T02:57:12;12.55;;;9.82;;
41039;SDS011;48586;50.122;18.972;2022-08-07T03:00:16;14.35;;;9.88;;
41039;SDS011;48586;50.122;18.972;2022-08-07T03:03:18;12.85;;;9.70;;
41039;SDS011;48586;50.122;18.972;2022-08-07T03:06:23;17.63;;;10.35;;
41039;SDS011;48586;50.122;18.972;2022-08-07T03:09:29;13.40;;;10.27;;
41039;SDS011;48586;50.122;18.972;2022-08-07T03:12:31;14.85;;;9.23;;
41039;SDS011;48586;50.122;18.972;2022-08-07T03:15:40;13.50;;;9.18;;
41039;SDS011;48586;50.122;18.972;2022-08-07T03:18:44;15.02;;;9.52;;
41039;SDS011;48586;50.122;18.972;2022-08-07T03:21:46;15.98;;;9.63;;
41039;SDS011;48586;50.122;18.972;2022-08-07T03:24:51;12.82;;;9.55;;
41039;SDS011;48586;50.122;18.972;2022-08-07T03:27:54;15.63;;;9.82;;
41039;SDS011;48586;50.122;18.972;2022-08-07T03:30:58;16.70;;;10.37;;
41039;SDS011;48586;50.122;18.972;2022-08-07T03:34:16;17.10;;;10.52;;
41039;SDS011;48586;50.122;18.972;2022-08-07T03:37:21;14.68;;;9.68;;
41039;SDS011;48586;50.122;18.972;2022-08-07T03:40:26;13.00;;;9.60;;
41039;SDS011;48586;50.122;18.972;2022-08-07T03:43:30;17.00;;;9.70;;
41039;SDS011;48586;50.122;18.972;2022-08-07T03:46:35;12.77;;;9.27;;
41039;SDS011;48586;50.122;18.972;2022-08-07T03:49:40;15.40;;;11.15;;
41039;SDS011;48586;50.122;18.972;2022-08-07T03:52:43;23.00;;;13.13;;
41039;SDS011;48586;50.122;18.972;2022-08-07T03:55:49;19.98;;;13.43;;
41039;SDS011;48586;50.122;18.972;2022-08-07T03:58:52;18.65;;;11.93;;
41039;SDS011;48586;50.122;18.972;2022-08-07T04:01:56;20.10;;;12.27;;
41039;SDS011;48586;50.122;18.972;2022-08-07T04:04:59;16.35;;;11.65;;
41039;SDS011;48586;50.122;18.972;2022-08-07T04:08:02;17.98;;;11.05;;
41039;SDS011;48586;50.122;18.972;2022-08-07T04:11:06;18.17;;;11.50;;
41039;SDS011;48586;50.122;18.972;2022-08-07T04:14:13;16.65;;;11.18;;
41039;SDS011;48586;50.122;18.972;2022-08-07T04:17:15;16.67;;;10.80;;
41039;SDS011;48586;50.122;18.972;2022-08-07T04:20:18;20.50;;;10.77;;
41039;SDS011;48586;50.122;18.972;2022-08-07T04:23:21;14.82;;;9.57;;
41039;SDS011;48586;50.122;18.972;2022-08-07T04:26:25;14.98;;;10.48;;
41039;SDS011;48586;50.122;18.972;2022-08-07T04:29:28;18.33;;;10.88;;
41039;SDS011;48586;50.122;18.972;2022-08-07T04:32:31;13.02;;;9.68;;
41039;SDS011;48586;50.122;18.972;2022-08-07T04:35:34;12.73;;;9.38;;
41039;SDS011;48586;50.122;18.972;2022-08-07T04:38:41;11.73;;;9.45;;
41039;SDS011;48586;50.122;18.972;2022-08-07T04:41:45;11.20;;;9.02;;
41039;SDS011;48586;50.122;18.972;2022-08-07T04:44:47;15.02;;;9.48;;
41039;SDS011;48586;50.122;18.972;2022-08-07T04:47:49;12.52;;;9.23;;
41039;SDS011;48586;50.122;18.972;2022-08-07T04:50:59;12.50;;;9.45;;
41039;SDS011;48586;50.122;18.972;2022-08-07T04:54:07;12.60;;;8.93;;
41039;SDS011;48586;50.122;18.972;2022-08-07T04:57:22;10.98;;;8.82;;
41039;SDS011;48586;50.122;18.972;2022-08-07T05:00:30;13.98;;;9.07;;
41039;SDS011;48586;50.122;18.972;2022-08-07T05:03:43;10.20;;;8.35;;
41039;SDS011;48586;50.122;18.972;2022-08-07T05:06:50;14.15;;;8.98;;
41039;SDS011;48586;50.122;18.972;2022-08-07T05:10:02;13.95;;;8.80;;
41039;SDS011;48586;50.122;18.972;2022-08-07T05:13:15;17.27;;;10.07;;
41039;SDS011;48586;50.122;18.972;2022-08-07T05:16:20;14.40;;;9.65;;
41039;SDS011;48586;50.122;18.972;2022-08-07T05:19:24;13.65;;;9.25;;
41039;SDS011;48586;50.122;18.972;2022-08-07T05:22:31;13.15;;;9.68;;
41039;SDS011;48586;50.122;18.972;2022-08-07T05:25:36;13.75;;;9.77;;
41039;SDS011;48586;50.122;18.972;2022-08-07T05:28:44;16.58;;;8.10;;
41039;SDS011;48586;50.122;18.972;2022-08-07T05:31:49;13.43;;;9.95;;
41039;SDS011;48586;50.122;18.972;2022-08-07T05:34:56;15.63;;;9.85;;
41039;SDS011;48586;50.122;18.972;2022-08-07T05:37:59;12.15;;;8.43;;
41039;SDS011;48586;50.122;18.972;2022-08-07T05:41:02;14.15;;;9.70;;
41039;SDS011;48586;50.122;18.972;2022-08-07T05:44:05;13.70;;;10.23;;
41039;SDS011;48586;50.122;18.972;2022-08-07T05:47:08;11.43;;;9.00;;
41039;SDS011;48586;50.122;18.972;2022-08-07T05:50:12;17.80;;;10.38;;
41039;SDS011;48586;50.122;18.972;2022-08-07T05:53:15;12.52;;;9.50;;
41039;SDS011;48586;50.122;18.972;2022-08-07T05:56:18;17.38;;;9.82;;
41039;SDS011;48586;50.122;18.972;2022-08-07T05:59:26;13.38;;;9.52;;
41039;SDS011;48586;50.122;18.972;2022-08-07T06:02:35;17.15;;;8.73;;
41039;SDS011;48586;50.122;18.972;2022-08-07T06:05:42;18.02;;;9.23;;
41039;SDS011;48586;50.122;18.972;2022-08-07T06:08:46;12.80;;;7.82;;
41039;SDS011;48586;50.122;18.972;2022-08-07T06:11:48;13.65;;;7.22;;
41039;SDS011;48586;50.122;18.972;2022-08-07T06:14:53;12.53;;;8.37;;
41039;SDS011;48586;50.122;18.972;2022-08-07T06:17:55;12.18;;;7.03;;
41039;SDS011;48586;50.122;18.972;2022-08-07T06:20:59;9.52;;;6.13;;
41039;SDS011;48586;50.122;18.972;2022-08-07T06:24:03;10.27;;;5.22;;
41039;SDS011;48586;50.122;18.972;2022-08-07T06:27:05;9.32;;;5.55;;
41039;SDS011;48586;50.122;18.972;2022-08-07T06:30:11;10.65;;;5.13;;
41039;SDS011;48586;50.122;18.972;2022-08-07T06:33:13;9.50;;;4.80;;
41039;SDS011;48586;50.122;18.972;2022-08-07T06:36:15;9.18;;;4.57;;
41039;SDS011;48586;50.122;18.972;2022-08-07T06:39:28;7.28;;;5.75;;
41039;SDS011;48586;50.122;18.972;2022-08-07T06:42:32;9.15;;;4.70;;
41039;SDS011;48586;50.122;18.972;2022-08-07T06:45:50;6.57;;;4.22;;
41039;SDS011;48586;50.122;18.972;2022-08-07T06:48:54;7.72;;;4.40;;
41039;SDS011;48586;50.122;18.972;2022-08-07T06:51:59;7.25;;;4.10;;
41039;SDS011;48586;50.122;18.972;2022-08-07T06:55:04;8.55;;;4.40;;
41039;SDS011;48586;50.122;18.972;2022-08-07T06:58:10;10.43;;;4.70;;
41039;SDS011;48586;50.122;18.972;2022-08-07T07:01:26;6.90;;;4.43;;
41039;SDS011;48586;50.122;18.972;2022-08-07T07:04:28;6.27;;;4.63;;
41039;SDS011;48586;50.122;18.972;2022-08-07T07:07:31;5.47;;;3.53;;
41039;SDS011;48586;50.122;18.972;2022-08-07T07:10:33;7.95;;;4.00;;
41039;SDS011;48586;50.122;18.972;2022-08-07T07:13:37;11.55;;;3.95;;
41039;SDS011;48586;50.122;18.972;2022-08-07T07:16:44;5.30;;;3.67;;
41039;SDS011;48586;50.122;18.972;2022-08-07T07:19:49;5.03;;;3.33;;
41039;SDS011;48586;50.122;18.972;2022-08-07T07:22:56;5.88;;;3.30;;
41039;SDS011;48586;50.122;18.972;2022-08-07T07:26:01;10.05;;;3.20;;
41039;SDS011;48586;50.122;18.972;2022-08-07T07:29:07;5.40;;;2.75;;
41039;SDS011;48586;50.122;18.972;2022-08-07T07:32:14;4.82;;;2.45;;
41039;SDS011;48586;50.122;18.972;2022-08-07T07:35:17;4.15;;;2.70;;
41039;SDS011;48586;50.122;18.972;2022-08-07T07:38:21;4.82;;;2.75;;
41039;SDS011;48586;50.122;18.972;2022-08-07T07:41:25;7.88;;;2.72;;
41039;SDS011;48586;50.122;18.972;2022-08-07T07:44:28;5.97;;;2.20;;
41039;SDS011;48586;50.122;18.972;2022-08-07T07:47:34;6.47;;;2.63;;
41039;SDS011;48586;50.122;18.972;2022-08-07T07:50:39;5.30;;;2.70;;
41039;SDS011;48586;50.122;18.972;2022-08-07T07:56:47;8.27;;;2.47;;
41039;SDS011;48586;50.122;18.972;2022-08-07T07:59:52;7.43;;;2.88;;
41039;SDS011;48586;50.122;18.972;2022-08-07T08:02:58;12.20;;;2.45;;
41039;SDS011;48586;50.122;18.972;2022-08-07T08:06:05;5.97;;;2.20;;
41039;SDS011;48586;50.122;18.972;2022-08-07T08:09:08;11.20;;;2.85;;
41039;SDS011;48586;50.122;18.972;2022-08-07T08:12:13;5.43;;;2.60;;
41039;SDS011;48586;50.122;18.972;2022-08-07T08:15:16;5.30;;;2.75;;
41039;SDS011;48586;50.122;18.972;2022-08-07T08:18:20;4.60;;;2.88;;
41039;SDS011;48586;50.122;18.972;2022-08-07T08:21:25;5.95;;;2.60;;
41039;SDS011;48586;50.122;18.972;2022-08-07T08:24:50;4.97;;;2.60;;
41039;SDS011;48586;50.122;18.972;2022-08-07T08:31:19;7.50;;;3.33;;
41039;SDS011;48586;50.122;18.972;2022-08-07T08:34:25;9.48;;;3.40;;
41039;SDS011;48586;50.122;18.972;2022-08-07T08:37:31;6.13;;;2.85;;
41039;SDS011;48586;50.122;18.972;2022-08-07T08:40:39;3.25;;;2.35;;
41039;SDS011;48586;50.122;18.972;2022-08-07T08:43:46;5.70;;;3.40;;
41039;SDS011;48586;50.122;18.972;2022-08-07T08:47:00;5.10;;;3.00;;
41039;SDS011;48586;50.122;18.972;2022-08-07T08:50:10;5.40;;;3.20;;
41039;SDS011;48586;50.122;18.972;2022-08-07T08:53:21;7.38;;;3.47;;
41039;SDS011;48586;50.122;18.972;2022-08-07T08:56:32;5.75;;;3.85;;
41039;SDS011;48586;50.122;18.972;2022-08-07T08:59:40;8.60;;;3.55;;
41039;SDS011;48586;50.122;18.972;2022-08-07T09:02:51;10.18;;;3.50;;
41039;SDS011;48586;50.122;18.972;2022-08-07T09:06:05;5.70;;;3.42;;
41039;SDS011;48586;50.122;18.972;2022-08-07T09:09:17;7.47;;;3.33;;
41039;SDS011;48586;50.122;18.972;2022-08-07T09:12:39;6.25;;;3.55;;
41039;SDS011;48586;50.122;18.972;2022-08-07T09:15:50;9.07;;;3.90;;
41039;SDS011;48586;50.122;18.972;2022-08-07T09:19:16;10.43;;;3.38;;
41039;SDS011;48586;50.122;18.972;2022-08-07T09:22:33;7.63;;;3.63;;
41039;SDS011;48586;50.122;18.972;2022-08-07T09:25:46;8.55;;;4.60;;
41039;SDS011;48586;50.122;18.972;2022-08-07T09:28:58;5.60;;;3.20;;
41039;SDS011;48586;50.122;18.972;2022-08-07T09:32:11;6.00;;;3.50;;
41039;SDS011;48586;50.122;18.972;2022-08-07T09:35:39;47.13;;;10.60;;
41039;SDS011;48586;50.122;18.972;2022-08-07T09:38:50;20.67;;;4.97;;
41039;SDS011;48586;50.122;18.972;2022-08-07T09:42:01;23.30;;;6.40;;
41039;SDS011;48586;50.122;18.972;2022-08-07T09:45:13;7.63;;;4.05;;
41039;SDS011;48586;50.122;18.972;2022-08-07T09:48:24;18.05;;;5.85;;
41039;SDS011;48586;50.122;18.972;2022-08-07T09:51:37;18.08;;;6.47;;
41039;SDS011;48586;50.122;18.972;2022-08-07T09:54:51;10.63;;;4.85;;
41039;SDS011;48586;50.122;18.972;2022-08-07T09:58:08;15.80;;;5.10;;
41039;SDS011;48586;50.122;18.972;2022-08-07T10:01:35;8.50;;;4.22;;
41039;SDS011;48586;50.122;18.972;2022-08-07T10:04:51;5.55;;;3.70;;
41039;SDS011;48586;50.122;18.972;2022-08-07T10:08:08;9.98;;;3.40;;
41039;SDS011;48586;50.122;18.972;2022-08-07T10:11:39;5.50;;;3.30;;
41039;SDS011;48586;50.122;18.972;2022-08-07T10:22:03;7.43;;;3.22;;
41039;SDS011;48586;50.122;18.972;2022-08-07T10:25:31;5.50;;;2.85;;
41039;SDS011;48586;50.122;18.972;2022-08-07T10:28:54;8.05;;;3.22;;
41039;SDS011;48586;50.122;18.972;2022-08-07T10:32:13;6.22;;;2.85;;
41039;SDS011;48586;50.122;18.972;2022-08-07T10:35:34;5.80;;;2.72;;
41039;SDS011;48586;50.122;18.972;2022-08-07T10:38:48;5.80;;;2.30;;
41039;SDS011;48586;50.122;18.972;2022-08-07T10:42:00;9.05;;;2.67;;
41039;SDS011;48586;50.122;18.972;2022-08-07T10:45:23;2.95;;;2.13;;
41039;SDS011;48586;50.122;18.972;2022-08-07T10:48:32;3.80;;;1.75;;
41039;SDS011;48586;50.122;18.972;2022-08-07T10:51:44;5.10;;;1.80;;
41039;SDS011;48586;50.122;18.972;2022-08-07T10:54:55;5.45;;;2.00;;
41039;SDS011;48586;50.122;18.972;2022-08-07T10:58:07;6.30;;;1.98;;
41039;SDS011;48586;50.122;18.972;2022-08-07T11:01:20;2.05;;;1.40;;
41039;SDS011;48586;50.122;18.972;2022-08-07T11:04:37;3.08;;;1.52;;
41039;SDS011;48586;50.122;18.972;2022-08-07T11:07:49;7.93;;;1.92;;
41039;SDS011;48586;50.122;18.972;2022-08-07T11:11:00;9.02;;;1.70;;
41039;SDS011;48586;50.122;18.972;2022-08-07T11:14:09;6.55;;;1.65;;
41039;SDS011;48586;50.122;18.972;2022-08-07T11:17:23;4.53;;;1.55;;
41039;SDS011;48586;50.122;18.972;2022-08-07T11:20:34;4.40;;;1.52;;
41039;SDS011;48586;50.122;18.972;2022-08-07T11:23:44;6.13;;;2.08;;
41039;SDS011;48586;50.122;18.972;2022-08-07T11:26:54;6.07;;;2.10;;
41039;SDS011;48586;50.122;18.972;2022-08-07T11:30:03;5.40;;;2.25;;
41039;SDS011;48586;50.122;18.972;2022-08-07T11:33:10;4.47;;;2.00;;
41039;SDS011;48586;50.122;18.972;2022-08-07T11:36:25;5.43;;;2.70;;
41039;SDS011;48586;50.122;18.972;2022-08-07T11:39:43;3.42;;;2.00;;
41039;SDS011;48586;50.122;18.972;2022-08-07T11:42:57;3.03;;;1.98;;
41039;SDS011;48586;50.122;18.972;2022-08-07T11:46:08;6.78;;;1.95;;
41039;SDS011;48586;50.122;18.972;2022-08-07T11:49:25;3.55;;;1.85;;
41039;SDS011;48586;50.122;18.972;2022-08-07T11:52:45;4.28;;;1.80;;
41039;SDS011;48586;50.122;18.972;2022-08-07T11:56:02;4.13;;;1.70;;
41039;SDS011;48586;50.122;18.972;2022-08-07T11:59:20;8.13;;;1.95;;
41039;SDS011;48586;50.122;18.972;2022-08-07T12:06:30;2.70;;;1.92;;
41039;SDS011;48586;50.122;18.972;2022-08-07T12:09:41;2.90;;;1.70;;
41039;SDS011;48586;50.122;18.972;2022-08-07T12:12:51;4.72;;;2.22;;
41039;SDS011;48586;50.122;18.972;2022-08-07T12:15:58;4.85;;;1.83;;
41039;SDS011;48586;50.122;18.972;2022-08-07T12:19:04;3.35;;;1.60;;
41039;SDS011;48586;50.122;18.972;2022-08-07T12:22:16;7.30;;;1.67;;
41039;SDS011;48586;50.122;18.972;2022-08-07T12:25:24;9.30;;;1.55;;
41039;SDS011;48586;50.122;18.972;2022-08-07T12:28:51;3.75;;;1.60;;
41039;SDS011;48586;50.122;18.972;2022-08-07T12:32:00;2.75;;;1.58;;
41039;SDS011;48586;50.122;18.972;2022-08-07T12:35:09;6.30;;;1.67;;
41039;SDS011;48586;50.122;18.972;2022-08-07T12:38:14;3.90;;;2.22;;
41039;SDS011;48586;50.122;18.972;2022-08-07T12:41:18;3.92;;;1.70;;
41039;SDS011;48586;50.122;18.972;2022-08-07T12:44:22;1.70;;;1.13;;
41039;SDS011;48586;50.122;18.972;2022-08-07T12:47:27;25.33;;;2.05;;
41039;SDS011;48586;50.122;18.972;2022-08-07T12:50:35;7.82;;;1.75;;
41039;SDS011;48586;50.122;18.972;2022-08-07T12:53:49;2.55;;;1.48;;
41039;SDS011;48586;50.122;18.972;2022-08-07T12:56:57;4.05;;;1.55;;
41039;SDS011;48586;50.122;18.972;2022-08-07T13:00:02;3.85;;;1.55;;
41039;SDS011;48586;50.122;18.972;2022-08-07T13:03:11;6.38;;;1.67;;
41039;SDS011;48586;50.122;18.972;2022-08-07T13:06:27;5.72;;;1.90;;
41039;SDS011;48586;50.122;18.972;2022-08-07T13:09:48;2.55;;;1.45;;
41039;SDS011;48586;50.122;18.972;2022-08-07T13:16:23;3.60;;;1.55;;
41039;SDS011;48586;50.122;18.972;2022-08-07T13:19:32;4.25;;;1.63;;
41039;SDS011;48586;50.122;18.972;2022-08-07T13:22:40;2.90;;;1.63;;
41039;SDS011;48586;50.122;18.972;2022-08-07T13:25:51;3.65;;;1.50;;
41039;SDS011;48586;50.122;18.972;2022-08-07T13:28:57;2.55;;;1.30;;
41039;SDS011;48586;50.122;18.972;2022-08-07T13:32:06;6.50;;;1.83;;
41039;SDS011;48586;50.122;18.972;2022-08-07T13:35:18;2.42;;;1.65;;
41039;SDS011;48586;50.122;18.972;2022-08-07T13:38:26;4.13;;;1.50;;
41039;SDS011;48586;50.122;18.972;2022-08-07T13:41:39;8.45;;;1.73;;
41039;SDS011;48586;50.122;18.972;2022-08-07T13:44:43;3.63;;;1.60;;
41039;SDS011;48586;50.122;18.972;2022-08-07T13:47:49;7.15;;;1.85;;
41039;SDS011;48586;50.122;18.972;2022-08-07T13:50:53;5.78;;;1.50;;
41039;SDS011;48586;50.122;18.972;2022-08-07T13:57:04;4.47;;;1.45;;
41039;SDS011;48586;50.122;18.972;2022-08-07T14:00:12;3.03;;;1.65;;
41039;SDS011;48586;50.122;18.972;2022-08-07T14:03:15;7.70;;;4.28;;
41039;SDS011;48586;50.122;18.972;2022-08-07T14:09:23;5.40;;;1.90;;
41039;SDS011;48586;50.122;18.972;2022-08-07T14:12:35;4.50;;;1.58;;
41039;SDS011;48586;50.122;18.972;2022-08-07T14:15:48;2.47;;;1.55;;
41039;SDS011;48586;50.122;18.972;2022-08-07T14:18:53;3.10;;;1.38;;
41039;SDS011;48586;50.122;18.972;2022-08-07T14:21:56;2.53;;;1.60;;
41039;SDS011;48586;50.122;18.972;2022-08-07T14:25:00;3.57;;;1.80;;
41039;SDS011;48586;50.122;18.972;2022-08-07T14:28:09;3.63;;;1.73;;
41039;SDS011;48586;50.122;18.972;2022-08-07T14:31:14;4.72;;;1.55;;
41039;SDS011;48586;50.122;18.972;2022-08-07T14:34:17;2.60;;;1.48;;
41039;SDS011;48586;50.122;18.972;2022-08-07T14:37:20;3.22;;;1.33;;
41039;SDS011;48586;50.122;18.972;2022-08-07T14:40:24;3.15;;;1.60;;
41039;SDS011;48586;50.122;18.972;2022-08-07T14:43:31;3.47;;;1.67;;
41039;SDS011;48586;50.122;18.972;2022-08-07T14:46:36;2.58;;;1.50;;
41039;SDS011;48586;50.122;18.972;2022-08-07T14:49:39;4.07;;;1.40;;
41039;SDS011;48586;50.122;18.972;2022-08-07T14:52:43;1.88;;;1.10;;
41039;SDS011;48586;50.122;18.972;2022-08-07T14:55:48;4.07;;;1.60;;
41039;SDS011;48586;50.122;18.972;2022-08-07T14:58:52;4.03;;;1.30;;
41039;SDS011;48586;50.122;18.972;2022-08-07T15:01:56;6.68;;;1.55;;
41039;SDS011;48586;50.122;18.972;2022-08-07T15:05:08;3.90;;;1.65;;
41039;SDS011;48586;50.122;18.972;2022-08-07T15:08:20;2.80;;;1.48;;
41039;SDS011;48586;50.122;18.972;2022-08-07T15:11:24;3.20;;;1.60;;
41039;SDS011;48586;50.122;18.972;2022-08-07T15:14:33;2.60;;;1.40;;
41039;SDS011;48586;50.122;18.972;2022-08-07T15:17:39;2.72;;;1.42;;
41039;SDS011;48586;50.122;18.972;2022-08-07T15:20:42;3.17;;;1.33;;
41039;SDS011;48586;50.122;18.972;2022-08-07T15:23:47;5.13;;;1.65;;
41039;SDS011;48586;50.122;18.972;2022-08-07T15:26:51;2.55;;;1.50;;
41039;SDS011;48586;50.122;18.972;2022-08-07T15:29:59;3.60;;;1.95;;
41039;SDS011;48586;50.122;18.972;2022-08-07T15:33:08;3.90;;;1.70;;
41039;SDS011;48586;50.122;18.972;2022-08-07T15:36:10;1.85;;;1.48;;
41039;SDS011;48586;50.122;18.972;2022-08-07T15:39:14;1.67;;;1.50;;
41039;SDS011;48586;50.122;18.972;2022-08-07T15:45:48;4.40;;;2.65;;
41039;SDS011;48586;50.122;18.972;2022-08-07T15:48:53;1.75;;;1.52;;
41039;SDS011;48586;50.122;18.972;2022-08-07T15:51:58;2.47;;;1.63;;
41039;SDS011;48586;50.122;18.972;2022-08-07T15:55:02;2.73;;;1.60;;
41039;SDS011;48586;50.122;18.972;2022-08-07T15:58:07;6.45;;;2.22;;
41039;SDS011;48586;50.122;18.972;2022-08-07T16:01:14;5.93;;;1.77;;
41039;SDS011;48586;50.122;18.972;2022-08-07T16:04:18;7.05;;;2.10;;
41039;SDS011;48586;50.122;18.972;2022-08-07T16:07:29;8.60;;;1.73;;
41039;SDS011;48586;50.122;18.972;2022-08-07T16:10:34;4.13;;;1.60;;
41039;SDS011;48586;50.122;18.972;2022-08-07T16:13:44;5.35;;;2.05;;
41039;SDS011;48586;50.122;18.972;2022-08-07T16:17:01;5.05;;;2.00;;
41039;SDS011;48586;50.122;18.972;2022-08-07T16:23:47;4.53;;;1.73;;
41039;SDS011;48586;50.122;18.972;2022-08-07T16:26:58;4.15;;;1.67;;
41039;SDS011;48586;50.122;18.972;2022-08-07T16:30:08;5.32;;;1.70;;
41039;SDS011;48586;50.122;18.972;2022-08-07T16:33:15;4.07;;;1.75;;
41039;SDS011;48586;50.122;18.972;2022-08-07T16:36:20;4.57;;;1.80;;
41039;SDS011;48586;50.122;18.972;2022-08-07T16:39:46;5.07;;;1.60;;
41039;SDS011;48586;50.122;18.972;2022-08-07T16:42:59;6.20;;;1.92;;
41039;SDS011;48586;50.122;18.972;2022-08-07T16:46:17;5.70;;;1.92;;
41039;SDS011;48586;50.122;18.972;2022-08-07T16:53:13;3.60;;;1.75;;
41039;SDS011;48586;50.122;18.972;2022-08-07T16:56:29;5.88;;;1.80;;
41039;SDS011;48586;50.122;18.972;2022-08-07T16:59:37;2.92;;;1.70;;
41039;SDS011;48586;50.122;18.972;2022-08-07T17:02:50;5.82;;;2.30;;
41039;SDS011;48586;50.122;18.972;2022-08-07T17:06:16;5.07;;;1.80;;
41039;SDS011;48586;50.122;18.972;2022-08-07T17:09:33;3.58;;;2.30;;
41039;SDS011;48586;50.122;18.972;2022-08-07T17:12:40;5.07;;;1.95;;
41039;SDS011;48586;50.122;18.972;2022-08-07T17:15:51;3.95;;;1.65;;
41039;SDS011;48586;50.122;18.972;2022-08-07T17:19:05;4.50;;;1.80;;
41039;SDS011;48586;50.122;18.972;2022-08-07T17:22:18;9.93;;;3.53;;
41039;SDS011;48586;50.122;18.972;2022-08-07T17:25:29;4.43;;;2.30;;
41039;SDS011;48586;50.122;18.972;2022-08-07T17:28:40;5.78;;;3.05;;
41039;SDS011;48586;50.122;18.972;2022-08-07T17:31:56;3.38;;;1.90;;
41039;SDS011;48586;50.122;18.972;2022-08-07T17:35:04;6.75;;;1.92;;
41039;SDS011;48586;50.122;18.972;2022-08-07T17:38:12;5.57;;;1.98;;
41039;SDS011;48586;50.122;18.972;2022-08-07T17:41:18;4.03;;;2.03;;
41039;SDS011;48586;50.122;18.972;2022-08-07T17:44:31;7.68;;;2.03;;
41039;SDS011;48586;50.122;18.972;2022-08-07T17:47:43;5.10;;;2.05;;
41039;SDS011;48586;50.122;18.972;2022-08-07T17:50:52;5.07;;;2.20;;
41039;SDS011;48586;50.122;18.972;2022-08-07T17:54:02;6.40;;;4.03;;
41039;SDS011;48586;50.122;18.972;2022-08-07T17:57:26;6.63;;;2.80;;
41039;SDS011;48586;50.122;18.972;2022-08-07T18:00:31;3.28;;;1.92;;
41039;SDS011;48586;50.122;18.972;2022-08-07T18:03:39;4.22;;;2.20;;
41039;SDS011;48586;50.122;18.972;2022-08-07T18:06:50;9.88;;;3.30;;
41039;SDS011;48586;50.122;18.972;2022-08-07T18:10:00;8.20;;;3.88;;
41039;SDS011;48586;50.122;18.972;2022-08-07T18:13:10;5.30;;;3.20;;
41039;SDS011;48586;50.122;18.972;2022-08-07T18:16:18;7.55;;;3.70;;
41039;SDS011;48586;50.122;18.972;2022-08-07T18:19:35;21.42;;;11.25;;
41039;SDS011;48586;50.122;18.972;2022-08-07T18:22:48;20.23;;;9.35;;
41039;SDS011;48586;50.122;18.972;2022-08-07T18:26:00;11.63;;;6.95;;
41039;SDS011;48586;50.122;18.972;2022-08-07T18:29:05;13.90;;;6.22;;
41039;SDS011;48586;50.122;18.972;2022-08-07T18:32:20;14.43;;;6.45;;
41039;SDS011;48586;50.122;18.972;2022-08-07T18:35:35;15.32;;;5.82;;
41039;SDS011;48586;50.122;18.972;2022-08-07T18:38:44;11.38;;;5.43;;
41039;SDS011;48586;50.122;18.972;2022-08-07T18:42:09;12.85;;;5.43;;
41039;SDS011;48586;50.122;18.972;2022-08-07T18:45:20;10.13;;;4.93;;
41039;SDS011;48586;50.122;18.972;2022-08-07T18:48:29;7.88;;;4.55;;
41039;SDS011;48586;50.122;18.972;2022-08-07T18:51:43;10.10;;;5.00;;
41039;SDS011;48586;50.122;18.972;2022-08-07T18:54:52;13.50;;;5.40;;
41039;SDS011;48586;50.122;18.972;2022-08-07T18:58:13;12.02;;;4.90;;
41039;SDS011;48586;50.122;18.972;2022-08-07T19:01:29;7.00;;;4.22;;
41039;SDS011;48586;50.122;18.972;2022-08-07T19:04:41;10.48;;;3.35;;
41039;SDS011;48586;50.122;18.972;2022-08-07T19:10:59;9.85;;;3.30;;
41039;SDS011;48586;50.122;18.972;2022-08-07T19:14:12;6.15;;;3.30;;
41039;SDS011;48586;50.122;18.972;2022-08-07T19:17:18;6.97;;;3.00;;